Marex Noa — 9V3031 — position and weather

sailwx.info

Track history (hours):
 
Tides and Currents Weather Stations Pressure Air Temp Water Temp Dewpoint Dewpoint Depression Visibility Wind Speed Wind Dir Waves Ship Positions

Marex Noa

Last reported at 2018-Jun-13 23:10 UTC. Time now 2018-Jun-22 09:06 UTC.
Position N 01°28' E 104°33'.
Warning: this ship's position is 8 days out of date.

Length 124 m; draft 8 m.

Type: Tanker. MMSI: 566400000.

Date/timePositionNaut miles runAvg speedWind from/ knotsBaromVisibWave heightAir tempDewpointWater temp
2018-Jun-13 23:10N 01°28' E 104°33'1 7.3
2018-Jun-13 22:59N 01°27' E 104°32'3 7.1
2018-Jun-13 22:30N 01°25' E 104°29'4 8.4
2018-Jun-13 21:59N 01°22' E 104°26'4 8.6
2018-Jun-13 21:29N 01°20' E 104°23'4 8.9
2018-Jun-13 21:00N 01°17' E 104°19'5 9.9
2018-Jun-13 20:30N 01°16' E 104°15'5 9.9
2018-Jun-13 20:00N 01°15' E 104°10'510.0
2018-Jun-13 19:29N 01°15' E 104°04'510.6
2018-Jun-13 19:00N 01°14' E 103°59'4 7.6
2018-Jun-13 18:30N 01°13' E 103°56'4 8.0
2018-Jun-13 18:00N 01°11' E 103°52'4 7.3
2018-Jun-13 17:31N 01°10' E 103°49'5 9.1
2018-Jun-13 16:59N 01°07' E 103°45'4 9.0
2018-Jun-13 16:31N 01°04' E 103°42'4 8.6
2018-Jun-13 16:00N 01°03' E 103°38'5 9.7
2018-Jun-13 15:30N 01°05' E 103°34'3 5.6
2018-Jun-13 15:00N 01°08' E 103°32'3 5.5
2018-Jun-13 14:29N 01°10' E 103°34'3 5.6
2018-Jun-13 14:00N 01°11' E 103°36'2 4.5
2018-Jun-13 13:30N 01°12' E 103°38'3 5.9
2018-Jun-13 13:00N 01°13' E 103°41'3 4.4
2018-Jun-13 12:24N 01°16' E 103°41'0 0.0
2018-Jun-13 11:39N 01°16' E 103°41'0 0.0
2018-Jun-13 11:30N 01°16' E 103°41'0 0.0
2018-Jun-13 10:54N 01°16' E 103°41'0 0.0
2018-Jun-13 10:30N 01°16' E 103°41'0 0.0
2018-Jun-13 09:51N 01°16' E 103°41'0 0.0
2018-Jun-13 08:15N 01°16' E 103°41'0 0.0
2018-Jun-13 07:45N 01°16' E 103°41'0 0.0
2018-Jun-13 07:27N 01°16' E 103°41'0 0.0
2018-Jun-13 07:00N 01°16' E 103°41'0 0.0
2018-Jun-13 06:18N 01°16' E 103°41'0 0.0
2018-Jun-13 04:51N 01°16' E 103°41'0 0.0
2018-Jun-13 04:27N 01°16' E 103°41'0 0.0
2018-Jun-13 03:51N 01°16' E 103°41'0 0.0
2018-Jun-13 03:21N 01°16' E 103°41'0 0.0
2018-Jun-13 02:14N 01°16' E 103°41'0 0.0
2018-Jun-13 01:54N 01°16' E 103°41'0 0.0
2018-Jun-13 01:30N 01°16' E 103°41'0 0.0
2018-Jun-13 00:56N 01°16' E 103°41'0 0.0
2018-Jun-13 00:12N 01°16' E 103°41'0 0.0
2018-Jun-12 23:48N 01°16' E 103°41'0 0.0
2018-Jun-12 23:30N 01°16' E 103°41'0 0.0
2018-Jun-12 22:51N 01°16' E 103°41'0 0.0
2018-Jun-12 22:27N 01°16' E 103°41'0 0.0
2018-Jun-12 20:00N 01°16' E 103°41'0 0.0
2018-Jun-12 19:30N 01°16' E 103°41'0 0.0
2018-Jun-12 18:51N 01°16' E 103°41'0 0.0
2018-Jun-12 18:27N 01°16' E 103°41'0 0.0
2018-Jun-12 18:00N 01°16' E 103°41'0 0.0
2018-Jun-12 17:30N 01°16' E 103°41'0 0.0
2018-Jun-12 16:48N 01°16' E 103°41'0 0.0
2018-Jun-12 16:30N 01°16' E 103°41'0 0.0
2018-Jun-12 15:18N 01°16' E 103°41'0 0.0
2018-Jun-12 14:57N 01°16' E 103°41'0 0.0
2018-Jun-12 14:30N 01°16' E 103°41'0 0.0
2018-Jun-12 12:59N 01°16' E 103°41'0 0.0
2018-Jun-12 12:15N 01°16' E 103°41'0 0.0
2018-Jun-12 11:57N 01°16' E 103°41'0 0.0
2018-Jun-12 11:27N 01°16' E 103°41'0 0.0
2018-Jun-12 10:48N 01°16' E 103°41'0 0.0
2018-Jun-12 10:30N 01°16' E 103°41'0 0.0
2018-Jun-12 09:57N 01°16' E 103°41'0 0.0
2018-Jun-12 09:30N 01°16' E 103°41'0 0.0
2018-Jun-12 08:50N 01°16' E 103°41'0 0.0
2018-Jun-12 08:27N 01°16' E 103°41'0 0.0
2018-Jun-12 07:57N 01°16' E 103°41'0 0.0
2018-Jun-12 07:24N 01°16' E 103°41'0 0.0
2018-Jun-12 07:00N 01°16' E 103°41'1 2.9
2018-Jun-12 06:30N 01°15' E 103°42'3 5.1
2018-Jun-12 06:00N 01°12' E 103°41'0 0.1
2018-Jun-12 05:29N 01°12' E 103°41'0 0.0
2018-Jun-12 04:57N 01°12' E 103°41'0 0.1
2018-Jun-12 04:30N 01°12' E 103°41'0 0.0
2018-Jun-12 04:00N 01°12' E 103°41'0 0.0
2018-Jun-12 03:30N 01°12' E 103°41'0 0.0
2018-Jun-12 03:00N 01°12' E 103°41'0 0.1
2018-Jun-12 02:30N 01°12' E 103°41'3 5.5
2018-Jun-12 02:00N 01°10' E 103°43'4 7.1
2018-Jun-12 01:30N 01°10' E 103°47'0 0.6
2018-Jun-12 01:00N 01°10' E 103°47'3 5.8
2018-Jun-12 00:30N 01°11' E 103°50'5 8.8
2018-Jun-11 23:59N 01°13' E 103°54'3 6.1
2018-Jun-11 23:30N 01°14' E 103°57'3 5.6
2018-Jun-11 23:00N 01°15' E 103°59'3 6.2
2018-Jun-11 22:30N 01°16' E 104°02'4 7.7
2018-Jun-11 22:00N 01°16' E 104°06'5 9.3
2018-Jun-11 21:29N 01°17' E 104°11'5 9.7
2018-Jun-11 21:00N 01°18' E 104°16'4 7.8
2018-Jun-11 20:30N 01°19' E 104°19'4 8.4
2018-Jun-11 20:00N 01°21' E 104°23'4 8.0
2018-Jun-11 19:30N 01°24' E 104°26'8 8.3
2018-Jun-11 18:35N 01°29' E 104°31'2 8.8
2018-Jun-11 18:24N 01°30' E 104°33'2110.4
2018-Jun-11 16:21N 01°37' E 104°53'  
2018-Jun-08 21:22N 01°55' E 106°03'71 9.6
2018-Jun-08 13:58N 01°44' E 104°53'2311.6
2018-Jun-08 11:56N 01°29' E 104°35'610.8
2018-Jun-08 11:26N 01°26' E 104°30'510.9
2018-Jun-08 10:59N 01°23' E 104°27'510.8
2018-Jun-08 10:30N 01°19' E 104°22'510.0
2018-Jun-08 09:59N 01°17' E 104°18'510.2
2018-Jun-08 09:30N 01°16' E 104°13'510.7
2018-Jun-08 09:00N 01°15' E 104°08'510.2
2018-Jun-08 08:30N 01°15' E 104°03'4 8.6
2018-Jun-08 08:00N 01°14' E 103°58'4 9.2
2018-Jun-08 07:31N 01°12' E 103°54'4 8.5
2018-Jun-08 07:01N 01°11' E 103°50'611.0
2018-Jun-08 06:30N 01°08' E 103°46'3 6.7
2018-Jun-08 06:00N 01°05' E 103°43'4 9.2
2018-Jun-08 05:31N 01°02' E 103°40'5 9.6
2018-Jun-08 05:00N 01°04' E 103°35'4 9.1
2018-Jun-08 04:30N 01°08' E 103°32'5 9.5
2018-Jun-08 03:59N 01°11' E 103°35'4 8.6
2018-Jun-08 03:30N 01°12' E 103°39'2 3.5
2018-Jun-08 03:00N 01°12' E 103°41'0 0.9
2018-Jun-08 02:29N 01°12' E 103°42'0 0.0
2018-Jun-08 01:59N 01°12' E 103°42'0 0.0
2018-Jun-08 01:27N 01°12' E 103°42'0 0.2
2018-Jun-08 00:56N 01°12' E 103°41'0 0.0
2018-Jun-08 00:26N 01°12' E 103°41'0 0.0
2018-Jun-07 23:59N 01°12' E 103°41'0 0.1
2018-Jun-07 23:30N 01°12' E 103°41'0 0.1
2018-Jun-07 23:00N 01°12' E 103°41'0 0.1
2018-Jun-07 22:30N 01°12' E 103°41'0 0.0
2018-Jun-07 21:57N 01°12' E 103°41'0 0.0
2018-Jun-07 21:30N 01°12' E 103°41'0 0.0
2018-Jun-07 20:56N 01°12' E 103°41'0 0.0
2018-Jun-07 20:21N 01°12' E 103°41'0 0.2
2018-Jun-07 19:59N 01°12' E 103°41'0 0.0
2018-Jun-07 19:29N 01°12' E 103°41'0 0.0
2018-Jun-07 18:57N 01°12' E 103°41'0 0.0
2018-Jun-07 18:27N 01°12' E 103°41'1 2.5
2018-Jun-07 18:00N 01°13' E 103°40'4 7.9
2018-Jun-07 17:29N 01°17' E 103°39'0 0.0
2018-Jun-07 16:50N 01°17' E 103°39'0 0.0
2018-Jun-07 16:19N 01°17' E 103°39'0 0.0
2018-Jun-07 15:56N 01°17' E 103°39'0 0.0
2018-Jun-07 14:56N 01°17' E 103°39'0 0.0
2018-Jun-07 14:29N 01°17' E 103°39'0 0.0
2018-Jun-07 13:48N 01°17' E 103°39'0 0.0
2018-Jun-07 13:20N 01°17' E 103°39'0 0.0
2018-Jun-07 12:57N 01°17' E 103°39'0 0.0
2018-Jun-07 12:25N 01°17' E 103°39'0 0.0
2018-Jun-07 11:51N 01°17' E 103°39'0 0.0
2018-Jun-07 11:27N 01°17' E 103°39'0 0.0
2018-Jun-07 10:55N 01°17' E 103°39'0 0.0
2018-Jun-07 10:27N 01°17' E 103°39'0 0.0
2018-Jun-07 09:51N 01°17' E 103°39'0 0.0
2018-Jun-07 09:30N 01°17' E 103°39'0 0.0
2018-Jun-07 08:48N 01°17' E 103°39'0 0.0
2018-Jun-07 08:30N 01°17' E 103°39'0 0.0
2018-Jun-07 07:59N 01°17' E 103°39'0 0.0
2018-Jun-07 07:25N 01°17' E 103°39'0 0.0
2018-Jun-07 06:58N 01°17' E 103°39'0 0.0
2018-Jun-07 06:28N 01°17' E 103°39'0 0.0
2018-Jun-07 05:57N 01°17' E 103°39'0 0.0
2018-Jun-07 05:30N 01°17' E 103°39'0 0.0
2018-Jun-07 04:51N 01°17' E 103°39'0 0.0
2018-Jun-07 04:25N 01°17' E 103°39'0 0.0
2018-Jun-07 03:50N 01°17' E 103°39'0 0.0
2018-Jun-07 03:24N 01°17' E 103°39'0 0.0
2018-Jun-07 02:55N 01°17' E 103°39'0 0.0
2018-Jun-07 02:10N 01°17' E 103°39'0 0.0
2018-Jun-07 01:58N 01°17' E 103°39'0 0.0
2018-Jun-07 01:28N 01°17' E 103°39'0 0.0
2018-Jun-07 00:55N 01°17' E 103°39'0 0.0
2018-Jun-07 00:30N 01°17' E 103°39'0 0.0
2018-Jun-06 23:58N 01°17' E 103°39'0 0.0
2018-Jun-06 23:22N 01°17' E 103°39'0 0.0
2018-Jun-06 22:58N 01°17' E 103°39'0 0.0
2018-Jun-06 22:27N 01°17' E 103°39'0 0.0
2018-Jun-06 21:54N 01°17' E 103°39'0 0.0
2018-Jun-06 21:25N 01°17' E 103°39'0 0.0
2018-Jun-06 20:51N 01°17' E 103°39'0 0.0
2018-Jun-06 20:29N 01°17' E 103°39'0 0.0
2018-Jun-06 19:58N 01°17' E 103°39'0 0.0
2018-Jun-06 19:30N 01°17' E 103°39'0 0.0
2018-Jun-06 18:59N 01°17' E 103°39'0 0.0
2018-Jun-06 18:24N 01°17' E 103°39'0 0.0
2018-Jun-06 17:58N 01°17' E 103°39'0 0.0
2018-Jun-06 17:28N 01°17' E 103°39'0 0.0
2018-Jun-06 16:14N 01°17' E 103°39'0 0.0
2018-Jun-06 15:57N 01°17' E 103°39'0 0.0
2018-Jun-06 15:29N 01°17' E 103°39'0 0.0
2018-Jun-06 14:57N 01°17' E 103°39'0 0.0
2018-Jun-06 13:37N 01°17' E 103°39'0 0.0
2018-Jun-06 13:30N 01°17' E 103°39'0 0.0
2018-Jun-06 12:48N 01°17' E 103°39'0 0.0
2018-Jun-06 12:27N 01°17' E 103°39'0 0.0
2018-Jun-06 11:57N 01°17' E 103°39'0 0.0
2018-Jun-06 11:29N 01°17' E 103°39'0 0.0
2018-Jun-06 10:59N 01°17' E 103°39'0 0.0
2018-Jun-06 10:27N 01°17' E 103°39'0 0.0
2018-Jun-06 09:51N 01°17' E 103°39'0 0.0
2018-Jun-06 09:25N 01°17' E 103°39'0 0.0
2018-Jun-06 08:53N 01°17' E 103°39'1 1.4
2018-Jun-06 08:30N 01°16' E 103°39'3 5.9
2018-Jun-06 08:00N 01°13' E 103°40'4 8.2
2018-Jun-06 07:30N 01°10' E 103°42'4 8.4
2018-Jun-06 07:00N 01°10' E 103°46'4 9.0
2018-Jun-06 06:30N 01°12' E 103°50'4 9.0
2018-Jun-06 06:00N 01°14' E 103°54'4 8.0
2018-Jun-06 05:29N 01°17' E 103°58'1 1.3
2018-Jun-06 04:52N 01°17' E 103°58'0 0.0
2018-Jun-06 04:24N 01°17' E 103°58'0 0.0
2018-Jun-06 03:58N 01°17' E 103°58'0 0.0
2018-Jun-06 03:28N 01°17' E 103°58'0 0.0
2018-Jun-06 02:58N 01°17' E 103°58'0 0.0
2018-Jun-06 02:31N 01°17' E 103°58'0 0.0
2018-Jun-06 01:55N 01°17' E 103°58'0 0.0
2018-Jun-06 01:27N 01°17' E 103°58'0 0.0
2018-Jun-06 00:57N 01°17' E 103°58'0 0.0
2018-Jun-06 00:31N 01°17' E 103°58'0 0.0
2018-Jun-05 23:58N 01°17' E 103°58'0 0.0
2018-Jun-05 23:22N 01°17' E 103°58'0 0.0
2018-Jun-05 22:57N 01°17' E 103°58'0 0.0
2018-Jun-05 22:27N 01°17' E 103°58'0 0.0
2018-Jun-05 21:58N 01°17' E 103°58'0 0.0
2018-Jun-05 21:30N 01°17' E 103°58'0 0.0
2018-Jun-05 20:51N 01°17' E 103°58'0 0.1
2018-Jun-05 20:24N 01°17' E 103°58'0 0.1
2018-Jun-05 19:45N 01°17' E 103°58'0 0.2
2018-Jun-05 19:30N 01°17' E 103°58'0 0.0
2018-Jun-05 18:58N 01°17' E 103°58'0 0.0
2018-Jun-05 18:25N 01°17' E 103°58'0 0.0
2018-Jun-05 17:52N 01°17' E 103°58'0 0.0
2018-Jun-05 17:28N 01°17' E 103°58'0 0.0
2018-Jun-05 16:57N 01°17' E 103°58'0 0.0
2018-Jun-05 16:30N 01°17' E 103°58'0 0.0
2018-Jun-05 15:58N 01°17' E 103°58'0 0.0
2018-Jun-05 15:25N 01°17' E 103°58'0 0.0
2018-Jun-05 14:57N 01°17' E 103°58'0 0.0
2018-Jun-05 14:21N 01°17' E 103°58'0 0.1
2018-Jun-05 13:58N 01°17' E 103°58'0 0.0
2018-Jun-05 13:25N 01°17' E 103°58'0 0.0
2018-Jun-05 12:55N 01°17' E 103°58'0 0.0
2018-Jun-05 12:28N 01°17' E 103°58'0 0.0
2018-Jun-05 11:58N 01°17' E 103°58'0 0.0
2018-Jun-05 11:28N 01°17' E 103°58'0 0.1
2018-Jun-05 10:57N 01°17' E 103°58'0 0.1
2018-Jun-05 10:30N 01°17' E 103°58'0 0.0
2018-Jun-05 09:51N 01°17' E 103°58'0 0.0
2018-Jun-05 09:27N 01°17' E 103°58'0 0.0
2018-Jun-05 08:25N 01°17' E 103°58'0 0.0
2018-Jun-05 07:57N 01°17' E 103°58'0 0.1
2018-Jun-05 07:18N 01°17' E 103°58'0 0.0
2018-Jun-05 06:58N 01°17' E 103°58'0 0.0
2018-Jun-05 06:25N 01°17' E 103°58'0 0.0
2018-Jun-05 05:58N 01°17' E 103°58'0 0.0
2018-Jun-05 05:31N 01°17' E 103°58'0 0.0
2018-Jun-05 04:48N 01°17' E 103°58'0 0.0
2018-Jun-05 04:30N 01°17' E 103°58'0 0.0
2018-Jun-05 03:57N 01°17' E 103°58'0 0.0
2018-Jun-05 03:28N 01°17' E 103°58'0 0.0
2018-Jun-05 02:54N 01°17' E 103°58'0 0.0
2018-Jun-05 02:30N 01°17' E 103°58'0 0.0
2018-Jun-05 01:55N 01°17' E 103°58'0 0.0
2018-Jun-05 01:30N 01°17' E 103°58'0 0.0
2018-Jun-05 00:57N 01°17' E 103°58'0 0.0
2018-Jun-05 00:24N 01°17' E 103°58'0 0.0
2018-Jun-04 23:36N 01°17' E 103°58'0 0.0
2018-Jun-04 23:24N 01°17' E 103°58'0 0.0
2018-Jun-04 22:58N 01°17' E 103°58'0 0.0
2018-Jun-04 22:30N 01°17' E 103°58'0 0.0
2018-Jun-04 21:48N 01°17' E 103°58'0 0.0
2018-Jun-04 21:30N 01°17' E 103°58'0 0.0
2018-Jun-04 20:58N 01°17' E 103°58'0 0.0
2018-Jun-04 20:01N 01°17' E 103°58'0 0.0
2018-Jun-04 19:55N 01°17' E 103°58'0 0.0
2018-Jun-04 19:31N 01°17' E 103°58'0 0.1
2018-Jun-04 18:52N 01°17' E 103°58'0 0.1
2018-Jun-04 18:24N 01°17' E 103°58'0 0.0
2018-Jun-04 17:46N 01°17' E 103°58'0 0.1
2018-Jun-04 17:25N 01°17' E 103°58'0 0.0
2018-Jun-04 16:55N 01°17' E 103°58'0 0.0
2018-Jun-04 16:24N 01°17' E 103°58'0 0.0
2018-Jun-04 15:58N 01°17' E 103°58'0 0.0
2018-Jun-04 15:30N 01°17' E 103°58'0 0.0
2018-Jun-04 14:34N 01°17' E 103°58'0 0.0
2018-Jun-04 14:28N 01°17' E 103°58'0 0.0
2018-Jun-04 13:58N 01°17' E 103°58'0 0.0
2018-Jun-04 12:57N 01°17' E 103°58'0 0.0
2018-Jun-04 12:22N 01°17' E 103°58'0 0.0
2018-Jun-04 11:57N 01°17' E 103°58'0 0.0
2018-Jun-04 11:30N 01°17' E 103°58'0 0.1
2018-Jun-04 10:45N 01°17' E 103°58'0 0.1
2018-Jun-04 10:09N 01°17' E 103°58'0 0.0
2018-Jun-04 09:54N 01°17' E 103°58'0 0.1
2018-Jun-04 09:27N 01°17' E 103°58'0 0.0
2018-Jun-04 08:57N 01°17' E 103°58'0 0.0
2018-Jun-04 07:57N 01°17' E 103°58'0 0.0
2018-Jun-04 07:30N 01°17' E 103°58'0 0.0
2018-Jun-04 06:54N 01°17' E 103°58'0 0.0
2018-Jun-04 06:25N 01°17' E 103°58'0 0.0
2018-Jun-04 05:45N 01°17' E 103°58'0 0.0
2018-Jun-04 05:31N 01°17' E 103°58'0 0.0
2018-Jun-04 04:58N 01°17' E 103°58'0 0.0
2018-Jun-04 04:31N 01°17' E 103°58'0 0.0
2018-Jun-04 04:01N 01°17' E 103°58'0 0.0
2018-Jun-04 03:28N 01°17' E 103°58'0 0.0
2018-Jun-04 02:52N 01°17' E 103°58'0 0.0
2018-Jun-04 02:24N 01°17' E 103°58'0 0.0
2018-Jun-04 01:49N 01°17' E 103°58'0 0.0
2018-Jun-04 01:25N 01°17' E 103°58'0 0.0
2018-Jun-04 00:54N 01°17' E 103°58'0 0.0
2018-Jun-04 00:31N 01°17' E 103°58'0 0.0
2018-Jun-04 00:01N 01°17' E 103°58'0 0.0
2018-Jun-03 23:31N 01°17' E 103°58'  
Track history (hours):
 
Tides and Currents Weather Stations Pressure Air Temp Water Temp Dewpoint Dewpoint Depression Visibility Wind Speed Wind Dir Waves Ship Positions

Marex Noa

Last reported at 2018-Jun-13 23:10 UTC. Time now 2018-Jun-22 09:06 UTC.
Position N 01°28' E 104°33'.
Warning: this ship's position is 8 days out of date.

Length 124 m; draft 8 m.

Type: Tanker. MMSI: 566400000.

Date/timePositionNaut miles runAvg speedWind from/ knotsBaromVisibWave heightAir tempDewpointWater temp
2018-Jun-13 23:10N 01°28' E 104°33'1 7.3
2018-Jun-13 22:59N 01°27' E 104°32'3 7.1
2018-Jun-13 22:30N 01°25' E 104°29'4 8.4
2018-Jun-13 21:59N 01°22' E 104°26'4 8.6
2018-Jun-13 21:29N 01°20' E 104°23'4 8.9
2018-Jun-13 21:00N 01°17' E 104°19'5 9.9
2018-Jun-13 20:30N 01°16' E 104°15'5 9.9
2018-Jun-13 20:00N 01°15' E 104°10'510.0
2018-Jun-13 19:29N 01°15' E 104°04'510.6
2018-Jun-13 19:00N 01°14' E 103°59'4 7.6
2018-Jun-13 18:30N 01°13' E 103°56'4 8.0
2018-Jun-13 18:00N 01°11' E 103°52'4 7.3
2018-Jun-13 17:31N 01°10' E 103°49'5 9.1
2018-Jun-13 16:59N 01°07' E 103°45'4 9.0
2018-Jun-13 16:31N 01°04' E 103°42'4 8.6
2018-Jun-13 16:00N 01°03' E 103°38'5 9.7
2018-Jun-13 15:30N 01°05' E 103°34'3 5.6
2018-Jun-13 15:00N 01°08' E 103°32'3 5.5
2018-Jun-13 14:29N 01°10' E 103°34'3 5.6
2018-Jun-13 14:00N 01°11' E 103°36'2 4.5
2018-Jun-13 13:30N 01°12' E 103°38'3 5.9
2018-Jun-13 13:00N 01°13' E 103°41'3 4.4
2018-Jun-13 12:24N 01°16' E 103°41'0 0.0
2018-Jun-13 11:39N 01°16' E 103°41'0 0.0
2018-Jun-13 11:30N 01°16' E 103°41'0 0.0
2018-Jun-13 10:54N 01°16' E 103°41'0 0.0
2018-Jun-13 10:30N 01°16' E 103°41'0 0.0
2018-Jun-13 09:51N 01°16' E 103°41'0 0.0
2018-Jun-13 08:15N 01°16' E 103°41'0 0.0
2018-Jun-13 07:45N 01°16' E 103°41'0 0.0
2018-Jun-13 07:27N 01°16' E 103°41'0 0.0
2018-Jun-13 07:00N 01°16' E 103°41'0 0.0
2018-Jun-13 06:18N 01°16' E 103°41'0 0.0
2018-Jun-13 04:51N 01°16' E 103°41'0 0.0
2018-Jun-13 04:27N 01°16' E 103°41'0 0.0
2018-Jun-13 03:51N 01°16' E 103°41'0 0.0
2018-Jun-13 03:21N 01°16' E 103°41'0 0.0
2018-Jun-13 02:14N 01°16' E 103°41'0 0.0
2018-Jun-13 01:54N 01°16' E 103°41'0 0.0
2018-Jun-13 01:30N 01°16' E 103°41'0 0.0
2018-Jun-13 00:56N 01°16' E 103°41'0 0.0
2018-Jun-13 00:12N 01°16' E 103°41'0 0.0
2018-Jun-12 23:48N 01°16' E 103°41'0 0.0
2018-Jun-12 23:30N 01°16' E 103°41'0 0.0
2018-Jun-12 22:51N 01°16' E 103°41'0 0.0
2018-Jun-12 22:27N 01°16' E 103°41'0 0.0
2018-Jun-12 20:00N 01°16' E 103°41'0 0.0
2018-Jun-12 19:30N 01°16' E 103°41'0 0.0
2018-Jun-12 18:51N 01°16' E 103°41'0 0.0
2018-Jun-12 18:27N 01°16' E 103°41'0 0.0
2018-Jun-12 18:00N 01°16' E 103°41'0 0.0
2018-Jun-12 17:30N 01°16' E 103°41'0 0.0
2018-Jun-12 16:48N 01°16' E 103°41'0 0.0
2018-Jun-12 16:30N 01°16' E 103°41'0 0.0
2018-Jun-12 15:18N 01°16' E 103°41'0 0.0
2018-Jun-12 14:57N 01°16' E 103°41'0 0.0
2018-Jun-12 14:30N 01°16' E 103°41'0 0.0
2018-Jun-12 12:59N 01°16' E 103°41'0 0.0
2018-Jun-12 12:15N 01°16' E 103°41'0 0.0
2018-Jun-12 11:57N 01°16' E 103°41'0 0.0
2018-Jun-12 11:27N 01°16' E 103°41'0 0.0
2018-Jun-12 10:48N 01°16' E 103°41'0 0.0
2018-Jun-12 10:30N 01°16' E 103°41'0 0.0
2018-Jun-12 09:57N 01°16' E 103°41'0 0.0
2018-Jun-12 09:30N 01°16' E 103°41'0 0.0
2018-Jun-12 08:50N 01°16' E 103°41'0 0.0
2018-Jun-12 08:27N 01°16' E 103°41'0 0.0
2018-Jun-12 07:57N 01°16' E 103°41'0 0.0
2018-Jun-12 07:24N 01°16' E 103°41'0 0.0
2018-Jun-12 07:00N 01°16' E 103°41'1 2.9
2018-Jun-12 06:30N 01°15' E 103°42'3 5.1
2018-Jun-12 06:00N 01°12' E 103°41'0 0.1
2018-Jun-12 05:29N 01°12' E 103°41'0 0.0
2018-Jun-12 04:57N 01°12' E 103°41'0 0.1
2018-Jun-12 04:30N 01°12' E 103°41'0 0.0
2018-Jun-12 04:00N 01°12' E 103°41'0 0.0
2018-Jun-12 03:30N 01°12' E 103°41'0 0.0
2018-Jun-12 03:00N 01°12' E 103°41'0 0.1
2018-Jun-12 02:30N 01°12' E 103°41'3 5.5
2018-Jun-12 02:00N 01°10' E 103°43'4 7.1
2018-Jun-12 01:30N 01°10' E 103°47'0 0.6
2018-Jun-12 01:00N 01°10' E 103°47'3 5.8
2018-Jun-12 00:30N 01°11' E 103°50'5 8.8
2018-Jun-11 23:59N 01°13' E 103°54'3 6.1
2018-Jun-11 23:30N 01°14' E 103°57'3 5.6
2018-Jun-11 23:00N 01°15' E 103°59'3 6.2
2018-Jun-11 22:30N 01°16' E 104°02'4 7.7
2018-Jun-11 22:00N 01°16' E 104°06'5 9.3
2018-Jun-11 21:29N 01°17' E 104°11'5 9.7
2018-Jun-11 21:00N 01°18' E 104°16'4 7.8
2018-Jun-11 20:30N 01°19' E 104°19'4 8.4
2018-Jun-11 20:00N 01°21' E 104°23'4 8.0
2018-Jun-11 19:30N 01°24' E 104°26'8 8.3
2018-Jun-11 18:35N 01°29' E 104°31'2 8.8
2018-Jun-11 18:24N 01°30' E 104°33'2110.4
2018-Jun-11 16:21N 01°37' E 104°53'  
2018-Jun-08 21:22N 01°55' E 106°03'71 9.6
2018-Jun-08 13:58N 01°44' E 104°53'2311.6
2018-Jun-08 11:56N 01°29' E 104°35'610.8
2018-Jun-08 11:26N 01°26' E 104°30'510.9
2018-Jun-08 10:59N 01°23' E 104°27'510.8
2018-Jun-08 10:30N 01°19' E 104°22'510.0
2018-Jun-08 09:59N 01°17' E 104°18'510.2
2018-Jun-08 09:30N 01°16' E 104°13'510.7
2018-Jun-08 09:00N 01°15' E 104°08'510.2
2018-Jun-08 08:30N 01°15' E 104°03'4 8.6
2018-Jun-08 08:00N 01°14' E 103°58'4 9.2
2018-Jun-08 07:31N 01°12' E 103°54'4 8.5
2018-Jun-08 07:01N 01°11' E 103°50'611.0
2018-Jun-08 06:30N 01°08' E 103°46'3 6.7
2018-Jun-08 06:00N 01°05' E 103°43'4 9.2
2018-Jun-08 05:31N 01°02' E 103°40'5 9.6
2018-Jun-08 05:00N 01°04' E 103°35'4 9.1
2018-Jun-08 04:30N 01°08' E 103°32'5 9.5
2018-Jun-08 03:59N 01°11' E 103°35'4 8.6
2018-Jun-08 03:30N 01°12' E 103°39'2 3.5
2018-Jun-08 03:00N 01°12' E 103°41'0 0.9
2018-Jun-08 02:29N 01°12' E 103°42'0 0.0
2018-Jun-08 01:59N 01°12' E 103°42'0 0.0
2018-Jun-08 01:27N 01°12' E 103°42'0 0.2
2018-Jun-08 00:56N 01°12' E 103°41'0 0.0
2018-Jun-08 00:26N 01°12' E 103°41'0 0.0
2018-Jun-07 23:59N 01°12' E 103°41'0 0.1
2018-Jun-07 23:30N 01°12' E 103°41'0 0.1
2018-Jun-07 23:00N 01°12' E 103°41'0 0.1
2018-Jun-07 22:30N 01°12' E 103°41'0 0.0
2018-Jun-07 21:57N 01°12' E 103°41'0 0.0
2018-Jun-07 21:30N 01°12' E 103°41'0 0.0
2018-Jun-07 20:56N 01°12' E 103°41'0 0.0
2018-Jun-07 20:21N 01°12' E 103°41'0 0.2
2018-Jun-07 19:59N 01°12' E 103°41'0 0.0
2018-Jun-07 19:29N 01°12' E 103°41'0 0.0
2018-Jun-07 18:57N 01°12' E 103°41'0 0.0
2018-Jun-07 18:27N 01°12' E 103°41'1 2.5
2018-Jun-07 18:00N 01°13' E 103°40'4 7.9
2018-Jun-07 17:29N 01°17' E 103°39'0 0.0
2018-Jun-07 16:50N 01°17' E 103°39'0 0.0
2018-Jun-07 16:19N 01°17' E 103°39'0 0.0
2018-Jun-07 15:56N 01°17' E 103°39'0 0.0
2018-Jun-07 14:56N 01°17' E 103°39'0 0.0
2018-Jun-07 14:29N 01°17' E 103°39'0 0.0
2018-Jun-07 13:48N 01°17' E 103°39'0 0.0
2018-Jun-07 13:20N 01°17' E 103°39'0 0.0
2018-Jun-07 12:57N 01°17' E 103°39'0 0.0
2018-Jun-07 12:25N 01°17' E 103°39'0 0.0
2018-Jun-07 11:51N 01°17' E 103°39'0 0.0
2018-Jun-07 11:27N 01°17' E 103°39'0 0.0
2018-Jun-07 10:55N 01°17' E 103°39'0 0.0
2018-Jun-07 10:27N 01°17' E 103°39'0 0.0
2018-Jun-07 09:51N 01°17' E 103°39'0 0.0
2018-Jun-07 09:30N 01°17' E 103°39'0 0.0
2018-Jun-07 08:48N 01°17' E 103°39'0 0.0
2018-Jun-07 08:30N 01°17' E 103°39'0 0.0
2018-Jun-07 07:59N 01°17' E 103°39'0 0.0
2018-Jun-07 07:25N 01°17' E 103°39'0 0.0
2018-Jun-07 06:58N 01°17' E 103°39'0 0.0
2018-Jun-07 06:28N 01°17' E 103°39'0 0.0
2018-Jun-07 05:57N 01°17' E 103°39'0 0.0
2018-Jun-07 05:30N 01°17' E 103°39'0 0.0
2018-Jun-07 04:51N 01°17' E 103°39'0 0.0
2018-Jun-07 04:25N 01°17' E 103°39'0 0.0
2018-Jun-07 03:50N 01°17' E 103°39'0 0.0
2018-Jun-07 03:24N 01°17' E 103°39'0 0.0
2018-Jun-07 02:55N 01°17' E 103°39'0 0.0
2018-Jun-07 02:10N 01°17' E 103°39'0 0.0
2018-Jun-07 01:58N 01°17' E 103°39'0 0.0
2018-Jun-07 01:28N 01°17' E 103°39'0 0.0
2018-Jun-07 00:55N 01°17' E 103°39'0 0.0
2018-Jun-07 00:30N 01°17' E 103°39'0 0.0
2018-Jun-06 23:58N 01°17' E 103°39'0 0.0
2018-Jun-06 23:22N 01°17' E 103°39'0 0.0
2018-Jun-06 22:58N 01°17' E 103°39'0 0.0
2018-Jun-06 22:27N 01°17' E 103°39'0 0.0
2018-Jun-06 21:54N 01°17' E 103°39'0 0.0
2018-Jun-06 21:25N 01°17' E 103°39'0 0.0
2018-Jun-06 20:51N 01°17' E 103°39'0 0.0
2018-Jun-06 20:29N 01°17' E 103°39'0 0.0
2018-Jun-06 19:58N 01°17' E 103°39'0 0.0
2018-Jun-06 19:30N 01°17' E 103°39'0 0.0
2018-Jun-06 18:59N 01°17' E 103°39'0 0.0
2018-Jun-06 18:24N 01°17' E 103°39'0 0.0
2018-Jun-06 17:58N 01°17' E 103°39'0 0.0
2018-Jun-06 17:28N 01°17' E 103°39'0 0.0
2018-Jun-06 16:14N 01°17' E 103°39'0 0.0
2018-Jun-06 15:57N 01°17' E 103°39'0 0.0
2018-Jun-06 15:29N 01°17' E 103°39'0 0.0
2018-Jun-06 14:57N 01°17' E 103°39'0 0.0
2018-Jun-06 13:37N 01°17' E 103°39'0 0.0
2018-Jun-06 13:30N 01°17' E 103°39'0 0.0
2018-Jun-06 12:48N 01°17' E 103°39'0 0.0
2018-Jun-06 12:27N 01°17' E 103°39'0 0.0
2018-Jun-06 11:57N 01°17' E 103°39'0 0.0
2018-Jun-06 11:29N 01°17' E 103°39'0 0.0
2018-Jun-06 10:59N 01°17' E 103°39'0 0.0
2018-Jun-06 10:27N 01°17' E 103°39'0 0.0
2018-Jun-06 09:51N 01°17' E 103°39'0 0.0
2018-Jun-06 09:25N 01°17' E 103°39'0 0.0
2018-Jun-06 08:53N 01°17' E 103°39'1 1.4
2018-Jun-06 08:30N 01°16' E 103°39'3 5.9
2018-Jun-06 08:00N 01°13' E 103°40'4 8.2
2018-Jun-06 07:30N 01°10' E 103°42'4 8.4
2018-Jun-06 07:00N 01°10' E 103°46'4 9.0
2018-Jun-06 06:30N 01°12' E 103°50'4 9.0
2018-Jun-06 06:00N 01°14' E 103°54'4 8.0
2018-Jun-06 05:29N 01°17' E 103°58'1 1.3
2018-Jun-06 04:52N 01°17' E 103°58'0 0.0
2018-Jun-06 04:24N 01°17' E 103°58'0 0.0
2018-Jun-06 03:58N 01°17' E 103°58'0 0.0
2018-Jun-06 03:28N 01°17' E 103°58'0 0.0
2018-Jun-06 02:58N 01°17' E 103°58'0 0.0
2018-Jun-06 02:31N 01°17' E 103°58'0 0.0
2018-Jun-06 01:55N 01°17' E 103°58'0 0.0
2018-Jun-06 01:27N 01°17' E 103°58'0 0.0
2018-Jun-06 00:57N 01°17' E 103°58'0 0.0
2018-Jun-06 00:31N 01°17' E 103°58'0 0.0
2018-Jun-05 23:58N 01°17' E 103°58'0 0.0
2018-Jun-05 23:22N 01°17' E 103°58'0 0.0
2018-Jun-05 22:57N 01°17' E 103°58'0 0.0
2018-Jun-05 22:27N 01°17' E 103°58'0 0.0
2018-Jun-05 21:58N 01°17' E 103°58'0 0.0
2018-Jun-05 21:30N 01°17' E 103°58'0 0.0
2018-Jun-05 20:51N 01°17' E 103°58'0 0.1
2018-Jun-05 20:24N 01°17' E 103°58'0 0.1
2018-Jun-05 19:45N 01°17' E 103°58'0 0.2
2018-Jun-05 19:30N 01°17' E 103°58'0 0.0
2018-Jun-05 18:58N 01°17' E 103°58'0 0.0
2018-Jun-05 18:25N 01°17' E 103°58'0 0.0
2018-Jun-05 17:52N 01°17' E 103°58'0 0.0
2018-Jun-05 17:28N 01°17' E 103°58'0 0.0
2018-Jun-05 16:57N 01°17' E 103°58'0 0.0
2018-Jun-05 16:30N 01°17' E 103°58'0 0.0
2018-Jun-05 15:58N 01°17' E 103°58'0 0.0
2018-Jun-05 15:25N 01°17' E 103°58'0 0.0
2018-Jun-05 14:57N 01°17' E 103°58'0 0.0
2018-Jun-05 14:21N 01°17' E 103°58'0 0.1
2018-Jun-05 13:58N 01°17' E 103°58'0 0.0
2018-Jun-05 13:25N 01°17' E 103°58'0 0.0
2018-Jun-05 12:55N 01°17' E 103°58'0 0.0
2018-Jun-05 12:28N 01°17' E 103°58'0 0.0
2018-Jun-05 11:58N 01°17' E 103°58'0 0.0
2018-Jun-05 11:28N 01°17' E 103°58'0 0.1
2018-Jun-05 10:57N 01°17' E 103°58'0 0.1
2018-Jun-05 10:30N 01°17' E 103°58'0 0.0
2018-Jun-05 09:51N 01°17' E 103°58'0 0.0
2018-Jun-05 09:27N 01°17' E 103°58'0 0.0
2018-Jun-05 08:25N 01°17' E 103°58'0 0.0
2018-Jun-05 07:57N 01°17' E 103°58'0 0.1
2018-Jun-05 07:18N 01°17' E 103°58'0 0.0
2018-Jun-05 06:58N 01°17' E 103°58'0 0.0
2018-Jun-05 06:25N 01°17' E 103°58'0 0.0
2018-Jun-05 05:58N 01°17' E 103°58'0 0.0
2018-Jun-05 05:31N 01°17' E 103°58'0 0.0
2018-Jun-05 04:48N 01°17' E 103°58'0 0.0
2018-Jun-05 04:30N 01°17' E 103°58'0 0.0
2018-Jun-05 03:57N 01°17' E 103°58'0 0.0
2018-Jun-05 03:28N 01°17' E 103°58'0 0.0
2018-Jun-05 02:54N 01°17' E 103°58'0 0.0
2018-Jun-05 02:30N 01°17' E 103°58'0 0.0
2018-Jun-05 01:55N 01°17' E 103°58'0 0.0
2018-Jun-05 01:30N 01°17' E 103°58'0 0.0
2018-Jun-05 00:57N 01°17' E 103°58'0 0.0
2018-Jun-05 00:24N 01°17' E 103°58'0 0.0
2018-Jun-04 23:36N 01°17' E 103°58'0 0.0
2018-Jun-04 23:24N 01°17' E 103°58'0 0.0
2018-Jun-04 22:58N 01°17' E 103°58'0 0.0
2018-Jun-04 22:30N 01°17' E 103°58'0 0.0
2018-Jun-04 21:48N 01°17' E 103°58'0 0.0
2018-Jun-04 21:30N 01°17' E 103°58'0 0.0
2018-Jun-04 20:58N 01°17' E 103°58'0 0.0
2018-Jun-04 20:01N 01°17' E 103°58'0 0.0
2018-Jun-04 19:55N 01°17' E 103°58'0 0.0
2018-Jun-04 19:31N 01°17' E 103°58'0 0.1
2018-Jun-04 18:52N 01°17' E 103°58'0 0.1
2018-Jun-04 18:24N 01°17' E 103°58'0 0.0
2018-Jun-04 17:46N 01°17' E 103°58'0 0.1
2018-Jun-04 17:25N 01°17' E 103°58'0 0.0
2018-Jun-04 16:55N 01°17' E 103°58'0 0.0
2018-Jun-04 16:24N 01°17' E 103°58'0 0.0
2018-Jun-04 15:58N 01°17' E 103°58'0 0.0
2018-Jun-04 15:30N 01°17' E 103°58'0 0.0
2018-Jun-04 14:34N 01°17' E 103°58'0 0.0
2018-Jun-04 14:28N 01°17' E 103°58'0 0.0
2018-Jun-04 13:58N 01°17' E 103°58'0 0.0
2018-Jun-04 12:57N 01°17' E 103°58'0 0.0
2018-Jun-04 12:22N 01°17' E 103°58'0 0.0
2018-Jun-04 11:57N 01°17' E 103°58'0 0.0
2018-Jun-04 11:30N 01°17' E 103°58'0 0.1
2018-Jun-04 10:45N 01°17' E 103°58'0 0.1
2018-Jun-04 10:09N 01°17' E 103°58'0 0.0
2018-Jun-04 09:54N 01°17' E 103°58'0 0.1
2018-Jun-04 09:27N 01°17' E 103°58'0 0.0
2018-Jun-04 08:57N 01°17' E 103°58'0 0.0
2018-Jun-04 07:57N 01°17' E 103°58'0 0.0
2018-Jun-04 07:30N 01°17' E 103°58'0 0.0
2018-Jun-04 06:54N 01°17' E 103°58'0 0.0
2018-Jun-04 06:25N 01°17' E 103°58'0 0.0
2018-Jun-04 05:45N 01°17' E 103°58'0 0.0
2018-Jun-04 05:31N 01°17' E 103°58'0 0.0
2018-Jun-04 04:58N 01°17' E 103°58'0 0.0
2018-Jun-04 04:31N 01°17' E 103°58'0 0.0
2018-Jun-04 04:01N 01°17' E 103°58'0 0.0
2018-Jun-04 03:28N 01°17' E 103°58'0 0.0
2018-Jun-04 02:52N 01°17' E 103°58'0 0.0
2018-Jun-04 02:24N 01°17' E 103°58'0 0.0
2018-Jun-04 01:49N 01°17' E 103°58'0 0.0
2018-Jun-04 01:25N 01°17' E 103°58'0 0.0
2018-Jun-04 00:54N 01°17' E 103°58'0 0.0
2018-Jun-04 00:31N 01°17' E 103°58'0 0.0
2018-Jun-04 00:01N 01°17' E 103°58'0 0.0
2018-Jun-03 23:31N 01°17' E 103°58'  

Dump ship's entire track history